createdAt,value
2023-03-16T00:01:37.585Z,0.60
2023-03-16T00:04:24.532Z,0.50
2023-03-16T00:07:05.335Z,0.60
2023-03-16T00:09:54.737Z,0.50
2023-03-16T00:12:35.332Z,0.60
2023-03-16T00:15:22.531Z,0.60
2023-03-16T00:18:02.328Z,0.60
2023-03-16T00:20:49.550Z,0.60
2023-03-16T00:23:35.422Z,0.60
2023-03-16T00:26:22.660Z,0.60
2023-03-16T00:29:02.355Z,0.60
2023-03-16T00:31:49.689Z,0.70
2023-03-16T00:34:31.467Z,0.70
2023-03-16T00:37:18.572Z,0.60
2023-03-16T00:40:04.466Z,0.60
2023-03-16T00:42:51.549Z,0.70
2023-03-16T00:45:31.605Z,0.80
2023-03-16T00:48:21.429Z,0.80
2023-03-16T00:51:01.485Z,0.80
2023-03-16T00:53:49.653Z,0.80
2023-03-16T00:56:29.420Z,0.90
2023-03-16T00:59:09.601Z,0.80
2023-03-16T01:01:56.444Z,0.70
2023-03-16T01:04:36.811Z,0.80
2023-03-16T01:07:26.575Z,0.70
2023-03-16T01:10:20.490Z,0.60
2023-03-16T01:13:00.769Z,0.70
2023-03-16T01:15:47.493Z,0.60
2023-03-16T01:18:27.996Z,0.60
2023-03-16T01:21:15.493Z,0.60
2023-03-16T01:24:04.694Z,0.50
2023-03-16T01:26:51.417Z,0.40
2023-03-16T01:29:31.567Z,0.40
2023-03-16T01:32:18.491Z,0.40
2023-03-16T01:34:58.522Z,0.40
2023-03-16T01:37:45.504Z,0.50
2023-03-16T01:40:29.916Z,0.50
2023-03-16T01:43:18.434Z,0.40
2023-03-16T01:46:18.403Z,0.40
2023-03-16T01:49:21.497Z,0.40
2023-03-16T01:52:11.548Z,0.40
2023-03-16T01:55:08.908Z,0.40
2023-03-16T01:57:51.524Z,0.50
2023-03-16T02:00:38.718Z,0.40
2023-03-16T02:03:28.416Z,0.40
2023-03-16T02:06:23.156Z,0.40
2023-03-16T02:09:11.513Z,0.40
2023-03-16T02:11:53.517Z,0.40
2023-03-16T02:14:42.472Z,0.40
2023-03-16T02:17:34.561Z,0.40
2023-03-16T02:20:20.492Z,0.40
2023-03-16T02:23:01.207Z,0.40
2023-03-16T02:26:10.572Z,0.30
2023-03-16T02:29:00.249Z,0.20
2023-03-16T02:31:48.498Z,0.20
2023-03-16T02:34:35.569Z,0.20
2023-03-16T02:37:17.603Z,0.20
2023-03-16T02:40:06.207Z,0.20
2023-03-16T02:42:46.473Z,0.10
2023-03-16T02:45:42.649Z,0.10
2023-03-16T02:48:38.601Z,0.10
2023-03-16T02:51:19.568Z,0.10
2023-03-16T02:54:07.648Z,0.10
2023-03-16T02:56:48.575Z,0.10
2023-03-16T02:59:38.651Z,0.10
2023-03-16T03:02:19.543Z,0.10
2023-03-16T03:05:06.584Z,0.10
2023-03-16T03:07:47.606Z,0.10
2023-03-16T03:10:28.216Z,0.10
2023-03-16T03:13:16.557Z,0.10
2023-03-16T03:16:03.719Z,0.00
2023-03-16T03:18:44.597Z,0.00
2023-03-16T03:21:31.694Z,0.00
2023-03-16T03:24:14.543Z,0.00
2023-03-16T03:27:10.536Z,0.10
2023-03-16T03:30:04.619Z,0.20
2023-03-16T03:32:51.671Z,0.30
2023-03-16T03:35:31.870Z,0.40
2023-03-16T03:38:18.642Z,0.30
2023-03-16T03:40:59.687Z,0.40
2023-03-16T03:43:47.587Z,0.40
2023-03-16T03:46:27.828Z,0.50
2023-03-16T03:49:14.617Z,0.60
2023-03-16T03:51:56.743Z,0.70
2023-03-16T03:54:43.617Z,0.70
2023-03-16T03:57:24.684Z,0.70
2023-03-16T04:00:16.611Z,0.80
2023-03-16T04:02:57.855Z,0.80
2023-03-16T04:05:50.558Z,0.70
2023-03-16T04:08:30.707Z,0.60
2023-03-16T04:11:23.727Z,0.60
2023-03-16T04:14:04.057Z,0.70
2023-03-16T04:16:52.706Z,0.60
2023-03-16T04:19:32.765Z,0.70
2023-03-16T04:22:24.660Z,0.80
2023-03-16T04:25:19.077Z,0.80
2023-03-16T04:28:05.636Z,0.80
2023-03-16T04:30:53.695Z,0.80
2023-03-16T04:33:42.475Z,0.80
2023-03-16T04:36:31.671Z,0.80
2023-03-16T04:39:18.865Z,0.90
2023-03-16T04:42:00.609Z,0.90
2023-03-16T04:44:48.707Z,0.90
2023-03-16T04:47:40.585Z,1.00
2023-03-16T04:50:28.075Z,1.00
2023-03-16T04:53:08.699Z,1.00
2023-03-16T04:55:51.393Z,1.00
2023-03-16T04:58:38.711Z,1.00
2023-03-16T05:01:25.798Z,1.00
2023-03-16T05:04:13.133Z,1.00
2023-03-16T05:07:04.229Z,1.00
2023-03-16T05:09:46.611Z,1.00
2023-03-16T05:12:40.697Z,1.10
2023-03-16T05:15:28.643Z,1.20
2023-03-16T05:18:28.681Z,1.20
2023-03-16T05:21:16.733Z,1.10
2023-03-16T05:24:05.722Z,1.10
2023-03-16T05:26:53.883Z,1.10
2023-03-16T05:29:33.723Z,1.00
2023-03-16T05:32:20.800Z,1.10
2023-03-16T05:35:00.731Z,1.20
2023-03-16T05:37:48.766Z,1.20
2023-03-16T05:40:30.044Z,1.20
2023-03-16T05:43:20.570Z,1.00
2023-03-16T05:46:08.661Z,1.00
2023-03-16T05:48:49.861Z,1.10
2023-03-16T05:51:37.726Z,1.30
2023-03-16T05:54:32.785Z,1.30
2023-03-16T05:57:22.816Z,1.20
2023-03-16T06:00:04.784Z,0.90
2023-03-16T06:02:53.861Z,0.90
2023-03-16T06:05:38.678Z,0.90
2023-03-16T06:08:19.144Z,0.90
2023-03-16T06:11:07.684Z,0.80
2023-03-16T06:13:48.952Z,0.80
2023-03-16T06:16:35.727Z,0.90
2023-03-16T06:19:23.882Z,1.00
2023-03-16T06:22:06.887Z,0.90
2023-03-16T06:25:00.773Z,1.10
2023-03-16T06:27:47.813Z,1.20
2023-03-16T06:30:34.818Z,1.20
2023-03-16T06:33:15.743Z,1.20
2023-03-16T06:36:03.960Z,1.20
2023-03-16T06:38:48.841Z,1.30
2023-03-16T06:41:45.820Z,1.30
2023-03-16T06:44:27.100Z,1.30
2023-03-16T06:47:20.745Z,1.20
2023-03-16T06:50:01.115Z,1.30
2023-03-16T06:52:47.764Z,1.30
2023-03-16T06:55:27.849Z,1.30
2023-03-16T06:58:14.758Z,1.40
2023-03-16T07:00:54.901Z,1.40
2023-03-16T07:03:41.733Z,1.40
2023-03-16T07:06:31.436Z,1.40
2023-03-16T07:09:18.719Z,1.50
2023-03-16T07:11:58.877Z,1.50
2023-03-16T07:14:47.967Z,1.60
2023-03-16T07:17:32.609Z,1.80
2023-03-16T07:20:22.888Z,1.90
2023-03-16T07:23:05.894Z,1.80
2023-03-16T07:25:53.852Z,1.80
2023-03-16T07:28:41.792Z,1.80
2023-03-16T07:31:29.919Z,2.00
2023-03-16T07:34:15.856Z,2.10
2023-03-16T07:37:01.182Z,2.10
2023-03-16T07:39:48.858Z,2.20
2023-03-16T07:42:36.099Z,2.20
2023-03-16T07:45:21.486Z,2.00
2023-03-16T07:48:07.887Z,2.10
2023-03-16T07:51:01.936Z,2.10
2023-03-16T07:53:48.917Z,2.20
2023-03-16T07:56:47.910Z,2.30
2023-03-16T07:59:49.155Z,2.20
2023-03-16T08:02:35.867Z,2.30
2023-03-16T08:05:27.817Z,2.50
2023-03-16T08:08:15.848Z,2.70
2023-03-16T08:11:02.889Z,2.90
2023-03-16T08:13:57.825Z,3.10
2023-03-16T08:17:10.835Z,3.10
2023-03-16T08:19:53.606Z,2.60
2023-03-16T08:22:42.842Z,2.50
2023-03-16T08:25:38.843Z,2.50
2023-03-16T08:28:29.918Z,2.70
2023-03-16T08:31:15.279Z,2.80
2023-03-16T08:34:19.806Z,3.10
2023-03-16T08:37:01.311Z,3.20
2023-03-16T08:39:48.818Z,2.90
2023-03-16T08:42:29.161Z,2.80
2023-03-16T08:45:16.836Z,2.90
2023-03-16T08:48:03.918Z,2.80
2023-03-16T08:50:44.586Z,2.80
2023-03-16T08:53:31.879Z,2.80
2023-03-16T08:56:19.683Z,2.60
2023-03-16T08:59:00.829Z,2.50
2023-03-16T09:01:48.063Z,2.60
2023-03-16T09:04:28.896Z,2.60
2023-03-16T09:07:16.055Z,2.70
2023-03-16T09:09:55.917Z,2.60
2023-03-16T09:12:43.014Z,2.60
2023-03-16T09:15:22.915Z,2.60
2023-03-16T09:18:10.567Z,2.60
2023-03-16T09:20:50.914Z,2.60
2023-03-16T09:23:38.118Z,2.60
2023-03-16T09:26:31.958Z,2.80
2023-03-16T09:29:19.196Z,2.80
2023-03-16T09:31:59.000Z,2.80
2023-03-16T09:34:46.179Z,2.90
2023-03-16T09:37:26.083Z,2.90
2023-03-16T09:40:13.109Z,3.30
2023-03-16T09:42:58.895Z,3.60
2023-03-16T09:45:53.928Z,3.90
2023-03-16T09:48:35.788Z,4.10
2023-03-16T09:51:45.975Z,4.10
2023-03-16T09:54:29.472Z,4.10
2023-03-16T09:57:21.925Z,3.90
2023-03-16T10:00:06.122Z,3.50
2023-03-16T10:03:10.904Z,3.30
2023-03-16T10:05:51.997Z,3.40
2023-03-16T10:08:59.943Z,3.80
2023-03-16T10:11:52.912Z,4.20
2023-03-16T10:14:39.433Z,4.30
2023-03-16T10:17:34.978Z,4.70
2023-03-16T10:20:17.641Z,5.00
2023-03-16T10:23:06.985Z,5.20
2023-03-16T10:26:02.032Z,5.20
2023-03-16T10:28:52.977Z,4.70
2023-03-16T10:31:33.086Z,4.20
2023-03-16T10:34:19.957Z,4.10
2023-03-16T10:37:03.622Z,4.20
2023-03-16T10:39:52.006Z,4.40
2023-03-16T10:42:32.148Z,4.50
2023-03-16T10:45:38.090Z,4.40
2023-03-16T10:48:23.355Z,4.60
2023-03-16T10:51:12.100Z,4.50
2023-03-16T10:53:53.683Z,4.40
2023-03-16T10:56:41.993Z,4.60
2023-03-16T10:59:37.103Z,4.80
2023-03-16T11:02:29.960Z,5.00
2023-03-16T11:05:32.075Z,5.10
2023-03-16T11:08:20.180Z,5.10
2023-03-16T11:11:08.079Z,5.20
2023-03-16T11:13:55.195Z,5.20
2023-03-16T11:16:42.158Z,5.40
2023-03-16T11:19:27.376Z,5.20
2023-03-16T11:22:19.994Z,5.10
2023-03-16T11:25:09.608Z,5.20
2023-03-16T11:28:00.016Z,5.10
2023-03-16T11:30:48.201Z,5.00
2023-03-16T11:33:38.048Z,5.20
2023-03-16T11:36:18.793Z,5.30
2023-03-16T11:39:06.125Z,5.70
2023-03-16T11:41:49.214Z,5.70
2023-03-16T11:44:40.116Z,5.70
2023-03-16T11:47:28.146Z,6.00
2023-03-16T11:50:30.142Z,6.30
2023-03-16T11:53:42.074Z,6.60
2023-03-16T11:56:34.196Z,7.00
2023-03-16T11:59:23.073Z,8.10
2023-03-16T12:02:06.366Z,8.60
2023-03-16T12:05:13.048Z,10.00
2023-03-16T12:08:17.438Z,10.70
2023-03-16T12:11:17.074Z,10.40
2023-03-16T12:13:57.372Z,10.90
2023-03-16T12:16:54.064Z,11.40
2023-03-16T12:19:38.455Z,11.30
2023-03-16T12:22:34.058Z,11.60
2023-03-16T12:25:31.378Z,11.70
2023-03-16T12:28:30.088Z,12.40
2023-03-16T12:31:20.105Z,12.60
2023-03-16T12:34:33.013Z,11.40
2023-03-16T12:37:36.108Z,10.00
2023-03-16T12:40:28.370Z,9.00
2023-03-16T12:43:15.173Z,8.30
2023-03-16T12:46:08.282Z,7.80
2023-03-16T12:48:58.083Z,7.60
2023-03-16T12:51:49.373Z,7.40
2023-03-16T12:54:36.167Z,7.10
2023-03-16T12:57:29.205Z,7.00
2023-03-16T13:00:16.549Z,6.80
2023-03-16T13:03:03.144Z,6.60
2023-03-16T13:05:49.913Z,6.20
2023-03-16T13:08:38.148Z,5.90
2023-03-16T13:11:25.624Z,6.00
2023-03-16T13:14:09.155Z,6.00
2023-03-16T13:16:57.690Z,5.80
2023-03-16T13:19:39.119Z,5.90
2023-03-16T13:22:29.274Z,5.90
2023-03-16T13:25:21.161Z,5.70
2023-03-16T13:28:08.271Z,5.60
2023-03-16T13:30:54.229Z,5.50
2023-03-16T13:33:43.135Z,5.50
2023-03-16T13:36:23.350Z,5.60
2023-03-16T13:39:29.244Z,5.60
2023-03-16T13:42:17.098Z,5.70
2023-03-16T13:45:04.186Z,5.70
2023-03-16T13:47:48.330Z,5.70
2023-03-16T13:50:39.146Z,5.70
2023-03-16T13:53:25.244Z,5.70
2023-03-16T13:56:12.150Z,5.90
2023-03-16T13:58:54.271Z,5.90
2023-03-16T14:01:41.198Z,6.00
2023-03-16T14:04:31.209Z,6.00
2023-03-16T14:07:23.935Z,5.90
2023-03-16T14:10:05.215Z,6.00
2023-03-16T14:13:02.343Z,6.20
2023-03-16T14:15:45.206Z,6.40
2023-03-16T14:18:51.829Z,6.40
2023-03-16T14:21:36.284Z,6.20
2023-03-16T14:24:31.026Z,6.20
2023-03-16T14:27:26.261Z,6.10
2023-03-16T14:30:14.217Z,6.20
2023-03-16T14:32:59.481Z,6.10
2023-03-16T14:35:53.780Z,6.10
2023-03-16T14:38:38.690Z,6.10
2023-03-16T14:41:25.234Z,6.20
2023-03-16T14:44:12.346Z,6.20
2023-03-16T14:46:52.247Z,6.30
2023-03-16T14:49:43.591Z,6.30
2023-03-16T14:52:27.244Z,6.30
2023-03-16T14:55:19.692Z,6.30
2023-03-16T14:58:00.206Z,6.30
2023-03-16T15:00:54.303Z,6.20
2023-03-16T15:03:36.133Z,6.20
2023-03-16T15:06:23.287Z,6.10
2023-03-16T15:09:10.250Z,6.10
2023-03-16T15:12:02.317Z,6.00
2023-03-16T15:15:08.049Z,5.80
2023-03-16T15:17:50.311Z,5.80
2023-03-16T15:20:39.378Z,5.80
2023-03-16T15:23:21.235Z,5.80
2023-03-16T15:26:15.255Z,5.60
2023-03-16T15:29:02.260Z,5.60
2023-03-16T15:31:42.530Z,5.50
2023-03-16T15:34:29.321Z,5.30
2023-03-16T15:37:09.365Z,5.30
2023-03-16T15:39:56.349Z,5.20
2023-03-16T15:42:36.571Z,5.20
2023-03-16T15:45:28.304Z,5.20
2023-03-16T15:48:10.904Z,5.30
2023-03-16T15:51:09.276Z,5.30
2023-03-16T15:54:02.324Z,5.40
2023-03-16T15:56:54.538Z,5.40
2023-03-16T15:59:38.329Z,5.40
2023-03-16T16:02:24.515Z,5.10
2023-03-16T16:04:52.344Z,4.90
2023-03-16T16:07:20.649Z,4.60
2023-03-16T16:09:47.972Z,4.50
2023-03-16T16:12:16.291Z,4.30
2023-03-16T16:14:43.400Z,4.20
2023-03-16T16:17:15.888Z,4.00
2023-03-16T16:19:43.836Z,3.90
2023-03-16T16:22:13.802Z,3.80
2023-03-16T16:24:40.934Z,3.70
2023-03-16T16:27:11.259Z,3.60
2023-03-16T16:29:39.195Z,3.60
2023-03-16T16:32:23.749Z,3.50
2023-03-16T16:35:03.495Z,3.40
2023-03-16T16:37:31.033Z,3.40
2023-03-16T16:39:58.178Z,3.30
2023-03-16T16:42:25.220Z,3.30
2023-03-16T16:44:52.710Z,3.30
2023-03-16T16:47:21.202Z,3.30
2023-03-16T16:49:49.601Z,3.20
2023-03-16T16:52:17.510Z,3.20
2023-03-16T16:54:44.868Z,3.20
2023-03-16T16:57:19.482Z,3.20
2023-03-16T16:59:48.056Z,3.20
2023-03-16T17:02:30.120Z,3.10
2023-03-16T17:04:57.592Z,3.10
2023-03-16T17:07:24.548Z,3.00
2023-03-16T17:09:51.705Z,3.00
2023-03-16T17:12:21.625Z,2.90
2023-03-16T17:14:49.543Z,2.90
2023-03-16T17:17:17.630Z,2.90
2023-03-16T17:19:46.951Z,3.00
2023-03-16T17:22:22.886Z,3.00
2023-03-16T17:24:50.775Z,3.10
2023-03-16T17:27:26.324Z,3.10
2023-03-16T17:29:57.144Z,3.10
2023-03-16T17:32:26.691Z,3.10
2023-03-16T17:34:53.869Z,3.20
2023-03-16T17:37:22.441Z,3.20
2023-03-16T17:39:49.770Z,3.20
2023-03-16T17:42:18.612Z,3.10
2023-03-16T17:44:47.444Z,3.10
2023-03-16T17:47:22.091Z,3.00
2023-03-16T17:49:49.498Z,3.00
2023-03-16T17:52:18.919Z,3.00
2023-03-16T17:54:47.138Z,3.00
2023-03-16T17:57:18.406Z,3.00
2023-03-16T17:59:48.994Z,3.00
2023-03-16T18:02:36.376Z,3.00
2023-03-16T18:05:05.658Z,3.00
2023-03-16T18:07:32.546Z,2.90
2023-03-16T18:09:59.812Z,2.90
2023-03-16T18:12:27.288Z,2.90
2023-03-16T18:14:58.628Z,2.90
2023-03-16T18:17:29.821Z,2.90
2023-03-16T18:19:57.289Z,2.90
2023-03-16T18:22:24.823Z,2.90
2023-03-16T18:24:53.195Z,2.90
2023-03-16T18:27:20.279Z,2.90
2023-03-16T18:29:48.327Z,2.90
2023-03-16T18:32:23.562Z,2.90
2023-03-16T18:34:52.650Z,2.90
2023-03-16T18:37:21.911Z,2.90
2023-03-16T18:39:50.145Z,2.90
2023-03-16T18:42:18.623Z,2.90
2023-03-16T18:44:45.733Z,2.80
2023-03-16T18:47:17.251Z,2.80
2023-03-16T18:49:48.893Z,2.80
2023-03-16T18:52:20.252Z,2.80
2023-03-16T18:54:48.645Z,2.80
2023-03-16T18:57:23.312Z,2.70
2023-03-16T18:59:50.614Z,2.70
2023-03-16T19:02:17.787Z,2.70
2023-03-16T19:04:45.156Z,2.70
2023-03-16T19:07:21.998Z,2.60
2023-03-16T19:09:49.132Z,2.60
2023-03-16T19:12:16.574Z,2.70
2023-03-16T19:14:44.041Z,2.70
2023-03-16T19:17:10.989Z,2.70
2023-03-16T19:19:38.066Z,2.60
2023-03-16T19:22:12.523Z,2.60
2023-03-16T19:24:44.585Z,2.50
2023-03-16T19:27:25.779Z,2.60
2023-03-16T19:29:53.962Z,2.70
2023-03-16T19:32:21.938Z,2.70
2023-03-16T19:34:49.378Z,2.80
2023-03-16T19:37:19.658Z,2.80
2023-03-16T19:39:47.883Z,2.90
2023-03-16T19:42:36.414Z,3.00
2023-03-16T19:45:04.415Z,3.00
2023-03-16T19:47:32.981Z,3.10
2023-03-16T19:50:00.572Z,3.10
2023-03-16T19:52:28.391Z,3.10
2023-03-16T19:54:55.936Z,3.00
2023-03-16T19:57:26.626Z,3.00
2023-03-16T19:59:57.778Z,3.00
2023-03-16T20:02:29.949Z,3.00
2023-03-16T20:04:57.477Z,2.90
2023-03-16T20:07:24.456Z,2.90
2023-03-16T20:09:51.959Z,2.90
2023-03-16T20:12:23.278Z,2.80
2023-03-16T20:14:51.475Z,2.80
2023-03-16T20:17:26.157Z,2.80
2023-03-16T20:19:53.233Z,2.80
2023-03-16T20:22:24.933Z,2.80
2023-03-16T20:24:54.387Z,2.80
2023-03-16T20:27:22.802Z,2.80
2023-03-16T20:29:51.802Z,2.80
2023-03-16T20:32:20.275Z,2.70
2023-03-16T20:34:47.631Z,2.70
2023-03-16T20:37:21.184Z,2.70
2023-03-16T20:39:49.222Z,2.70
2023-03-16T20:42:17.875Z,2.70
2023-03-16T20:44:45.704Z,2.70
2023-03-16T20:47:19.950Z,2.70
2023-03-16T20:49:47.803Z,2.70
2023-03-16T20:52:19.767Z,2.70
2023-03-16T20:54:48.116Z,2.70
2023-03-16T20:57:25.209Z,2.70
2023-03-16T20:59:54.049Z,2.60
2023-03-16T21:02:32.142Z,2.70
2023-03-16T21:05:00.285Z,2.60
2023-03-16T21:07:27.353Z,2.60
2023-03-16T21:09:54.537Z,2.60
2023-03-16T21:12:24.294Z,2.60
2023-03-16T21:14:51.708Z,2.60
2023-03-16T21:17:25.897Z,2.60
2023-03-16T21:19:53.610Z,2.70
2023-03-16T21:22:23.401Z,2.70
2023-03-16T21:24:50.489Z,2.70
2023-03-16T21:27:22.123Z,2.70
2023-03-16T21:29:49.330Z,2.70
2023-03-16T21:32:20.972Z,2.70
2023-03-16T21:34:48.649Z,2.70
2023-03-16T21:37:19.855Z,2.70
2023-03-16T21:39:48.180Z,2.70
2023-03-16T21:42:17.321Z,2.70
2023-03-16T21:44:44.701Z,2.70
2023-03-16T21:47:28.171Z,2.70
2023-03-16T21:49:55.837Z,2.80
2023-03-16T21:52:24.116Z,2.80
2023-03-16T21:54:52.067Z,2.90
2023-03-16T21:57:19.914Z,2.90
2023-03-16T21:59:47.185Z,2.80
2023-03-16T22:02:26.086Z,2.90
2023-03-16T22:05:00.480Z,2.90
2023-03-16T22:07:27.442Z,2.90
2023-03-16T22:09:54.797Z,2.90
2023-03-16T22:12:21.747Z,2.90
2023-03-16T22:14:48.940Z,2.90
2023-03-16T22:17:22.231Z,2.90
2023-03-16T22:19:49.203Z,2.90
2023-03-16T22:22:19.606Z,2.90
2023-03-16T22:24:46.685Z,2.90
2023-03-16T22:27:20.721Z,2.90
2023-03-16T22:29:51.279Z,2.90
2023-03-16T22:32:19.647Z,3.00
2023-03-16T22:34:51.191Z,3.00
2023-03-16T22:37:22.002Z,3.00
2023-03-16T22:39:49.724Z,2.90
2023-03-16T22:42:19.978Z,3.00
2023-03-16T22:44:47.064Z,3.00
2023-03-16T22:47:21.182Z,3.10
2023-03-16T22:49:48.130Z,3.00
2023-03-16T22:52:15.535Z,3.00
2023-03-16T22:54:42.579Z,3.00
2023-03-16T22:57:13.884Z,3.00
2023-03-16T22:59:41.538Z,3.00
2023-03-16T23:02:13.909Z,3.00
2023-03-16T23:04:41.251Z,3.00
2023-03-16T23:07:12.623Z,3.00
2023-03-16T23:09:39.982Z,3.00
2023-03-16T23:12:13.512Z,2.90
2023-03-16T23:14:41.403Z,2.90
2023-03-16T23:17:22.361Z,3.00
2023-03-16T23:19:49.425Z,3.00
2023-03-16T23:22:17.097Z,3.00
2023-03-16T23:24:44.134Z,3.00
2023-03-16T23:27:18.711Z,3.00
2023-03-16T23:29:46.063Z,3.00
2023-03-16T23:32:13.390Z,3.00
2023-03-16T23:34:40.626Z,3.00
2023-03-16T23:37:08.662Z,3.00
2023-03-16T23:39:35.683Z,3.00
2023-03-16T23:42:04.015Z,3.00
2023-03-16T23:44:31.332Z,3.00
2023-03-16T23:46:58.989Z,3.00
2023-03-16T23:49:27.712Z,3.00
2023-03-16T23:51:56.348Z,3.00
2023-03-16T23:54:24.553Z,3.00
2023-03-16T23:56:52.023Z,3.00
2023-03-16T23:59:20.423Z,3.00
